sensor_id;sensor_type;location;lat;lon;timestamp;P1;durP1;ratioP1;P2;durP2;ratioP2
4365;SDS011;2196;47.422;9.656;2023-06-22T00:01:46;4.90;;;3.97;;
4365;SDS011;2196;47.422;9.656;2023-06-22T00:04:13;9.10;;;5.60;;
4365;SDS011;2196;47.422;9.656;2023-06-22T00:06:40;4.70;;;3.90;;
4365;SDS011;2196;47.422;9.656;2023-06-22T00:09:07;5.80;;;5.07;;
4365;SDS011;2196;47.422;9.656;2023-06-22T00:11:35;5.37;;;3.87;;
4365;SDS011;2196;47.422;9.656;2023-06-22T00:14:02;6.80;;;4.37;;
4365;SDS011;2196;47.422;9.656;2023-06-22T00:16:31;5.10;;;4.60;;
4365;SDS011;2196;47.422;9.656;2023-06-22T00:18:58;4.57;;;4.10;;
4365;SDS011;2196;47.422;9.656;2023-06-22T00:21:25;5.80;;;4.47;;
4365;SDS011;2196;47.422;9.656;2023-06-22T00:23:52;4.87;;;4.47;;
4365;SDS011;2196;47.422;9.656;2023-06-22T00:26:20;6.73;;;4.77;;
4365;SDS011;2196;47.422;9.656;2023-06-22T00:28:48;5.43;;;5.03;;
4365;SDS011;2196;47.422;9.656;2023-06-22T00:31:15;7.40;;;5.43;;
4365;SDS011;2196;47.422;9.656;2023-06-22T00:33:43;5.13;;;4.67;;
4365;SDS011;2196;47.422;9.656;2023-06-22T00:36:10;7.47;;;4.80;;
4365;SDS011;2196;47.422;9.656;2023-06-22T00:38:38;5.00;;;4.40;;
4365;SDS011;2196;47.422;9.656;2023-06-22T00:41:06;5.50;;;4.13;;
4365;SDS011;2196;47.422;9.656;2023-06-22T00:43:33;5.77;;;4.43;;
4365;SDS011;2196;47.422;9.656;2023-06-22T00:46:00;11.83;;;6.43;;
4365;SDS011;2196;47.422;9.656;2023-06-22T00:48:27;9.23;;;6.20;;
4365;SDS011;2196;47.422;9.656;2023-06-22T00:50:55;6.00;;;4.30;;
4365;SDS011;2196;47.422;9.656;2023-06-22T00:53:22;7.30;;;5.63;;
4365;SDS011;2196;47.422;9.656;2023-06-22T00:55:49;5.53;;;5.10;;
4365;SDS011;2196;47.422;9.656;2023-06-22T00:58:17;9.57;;;5.20;;
4365;SDS011;2196;47.422;9.656;2023-06-22T01:00:47;8.83;;;5.13;;
4365;SDS011;2196;47.422;9.656;2023-06-22T01:03:14;5.10;;;4.57;;
4365;SDS011;2196;47.422;9.656;2023-06-22T01:05:42;7.33;;;5.70;;
4365;SDS011;2196;47.422;9.656;2023-06-22T01:08:26;7.87;;;5.30;;
4365;SDS011;2196;47.422;9.656;2023-06-22T01:11:04;8.33;;;5.03;;
4365;SDS011;2196;47.422;9.656;2023-06-22T01:13:35;8.40;;;5.20;;
4365;SDS011;2196;47.422;9.656;2023-06-22T01:16:09;9.20;;;5.50;;
4365;SDS011;2196;47.422;9.656;2023-06-22T01:18:41;7.00;;;5.27;;
4365;SDS011;2196;47.422;9.656;2023-06-22T01:21:11;5.47;;;4.97;;
4365;SDS011;2196;47.422;9.656;2023-06-22T01:23:46;6.60;;;4.57;;
4365;SDS011;2196;47.422;9.656;2023-06-22T01:26:25;8.23;;;5.33;;
4365;SDS011;2196;47.422;9.656;2023-06-22T01:29:05;10.07;;;5.73;;
4365;SDS011;2196;47.422;9.656;2023-06-22T01:31:34;6.53;;;4.83;;
4365;SDS011;2196;47.422;9.656;2023-06-22T01:34:03;6.87;;;5.00;;
4365;SDS011;2196;47.422;9.656;2023-06-22T01:36:31;7.13;;;5.10;;
4365;SDS011;2196;47.422;9.656;2023-06-22T01:38:59;5.93;;;5.40;;
4365;SDS011;2196;47.422;9.656;2023-06-22T01:41:29;7.30;;;5.33;;
4365;SDS011;2196;47.422;9.656;2023-06-22T01:43:57;10.33;;;5.13;;
4365;SDS011;2196;47.422;9.656;2023-06-22T01:46:26;5.83;;;5.00;;
4365;SDS011;2196;47.422;9.656;2023-06-22T01:48:53;5.87;;;5.37;;
4365;SDS011;2196;47.422;9.656;2023-06-22T01:51:21;10.80;;;6.13;;
4365;SDS011;2196;47.422;9.656;2023-06-22T01:53:48;7.07;;;5.00;;
4365;SDS011;2196;47.422;9.656;2023-06-22T01:56:15;12.33;;;6.03;;
4365;SDS011;2196;47.422;9.656;2023-06-22T01:58:48;6.77;;;5.03;;
4365;SDS011;2196;47.422;9.656;2023-06-22T02:01:22;7.23;;;5.53;;
4365;SDS011;2196;47.422;9.656;2023-06-22T02:03:57;8.27;;;5.53;;
4365;SDS011;2196;47.422;9.656;2023-06-22T02:06:31;9.90;;;5.80;;
4365;SDS011;2196;47.422;9.656;2023-06-22T02:09:02;10.83;;;5.13;;
4365;SDS011;2196;47.422;9.656;2023-06-22T02:11:35;9.30;;;5.17;;
4365;SDS011;2196;47.422;9.656;2023-06-22T02:14:03;6.30;;;4.47;;
4365;SDS011;2196;47.422;9.656;2023-06-22T02:16:32;4.80;;;4.47;;
4365;SDS011;2196;47.422;9.656;2023-06-22T02:19:01;5.93;;;4.50;;
4365;SDS011;2196;47.422;9.656;2023-06-22T02:21:29;7.63;;;4.93;;
4365;SDS011;2196;47.422;9.656;2023-06-22T02:23:56;9.83;;;5.67;;
4365;SDS011;2196;47.422;9.656;2023-06-22T02:26:23;8.83;;;5.47;;
4365;SDS011;2196;47.422;9.656;2023-06-22T02:28:51;6.97;;;5.03;;
4365;SDS011;2196;47.422;9.656;2023-06-22T02:31:19;6.37;;;4.77;;
4365;SDS011;2196;47.422;9.656;2023-06-22T02:33:46;7.70;;;5.27;;
4365;SDS011;2196;47.422;9.656;2023-06-22T02:36:15;11.23;;;6.77;;
4365;SDS011;2196;47.422;9.656;2023-06-22T02:38:41;10.97;;;5.77;;
4365;SDS011;2196;47.422;9.656;2023-06-22T02:41:13;9.20;;;6.93;;
4365;SDS011;2196;47.422;9.656;2023-06-22T02:43:43;10.27;;;6.77;;
4365;SDS011;2196;47.422;9.656;2023-06-22T02:46:11;9.53;;;6.67;;
4365;SDS011;2196;47.422;9.656;2023-06-22T02:48:38;12.87;;;7.17;;
4365;SDS011;2196;47.422;9.656;2023-06-22T02:51:05;9.07;;;6.40;;
4365;SDS011;2196;47.422;9.656;2023-06-22T02:53:34;14.67;;;8.30;;
4365;SDS011;2196;47.422;9.656;2023-06-22T02:56:01;10.20;;;6.43;;
4365;SDS011;2196;47.422;9.656;2023-06-22T02:58:30;10.17;;;6.30;;
4365;SDS011;2196;47.422;9.656;2023-06-22T03:00:58;12.83;;;7.07;;
4365;SDS011;2196;47.422;9.656;2023-06-22T03:03:29;10.13;;;6.73;;
4365;SDS011;2196;47.422;9.656;2023-06-22T03:05:56;8.57;;;7.07;;
4365;SDS011;2196;47.422;9.656;2023-06-22T03:08:23;11.47;;;7.50;;
4365;SDS011;2196;47.422;9.656;2023-06-22T03:10:52;14.93;;;7.57;;
4365;SDS011;2196;47.422;9.656;2023-06-22T03:13:19;7.83;;;6.80;;
4365;SDS011;2196;47.422;9.656;2023-06-22T03:15:46;12.40;;;8.87;;
4365;SDS011;2196;47.422;9.656;2023-06-22T03:18:13;10.53;;;6.83;;
4365;SDS011;2196;47.422;9.656;2023-06-22T03:20:40;9.47;;;6.40;;
4365;SDS011;2196;47.422;9.656;2023-06-22T03:23:07;8.40;;;7.10;;
4365;SDS011;2196;47.422;9.656;2023-06-22T03:25:34;14.57;;;7.27;;
4365;SDS011;2196;47.422;9.656;2023-06-22T03:28:03;12.90;;;7.40;;
4365;SDS011;2196;47.422;9.656;2023-06-22T03:30:30;10.40;;;6.67;;
4365;SDS011;2196;47.422;9.656;2023-06-22T03:32:57;12.40;;;6.43;;
4365;SDS011;2196;47.422;9.656;2023-06-22T03:35:24;9.40;;;7.10;;
4365;SDS011;2196;47.422;9.656;2023-06-22T03:37:51;8.60;;;6.20;;
4365;SDS011;2196;47.422;9.656;2023-06-22T03:40:18;18.63;;;9.10;;
4365;SDS011;2196;47.422;9.656;2023-06-22T03:42:46;14.47;;;6.60;;
4365;SDS011;2196;47.422;9.656;2023-06-22T03:45:14;15.60;;;6.80;;
4365;SDS011;2196;47.422;9.656;2023-06-22T03:47:41;17.07;;;7.77;;
4365;SDS011;2196;47.422;9.656;2023-06-22T03:50:08;11.00;;;6.23;;
4365;SDS011;2196;47.422;9.656;2023-06-22T03:52:35;7.87;;;7.17;;
4365;SDS011;2196;47.422;9.656;2023-06-22T03:55:03;10.80;;;6.87;;
4365;SDS011;2196;47.422;9.656;2023-06-22T03:57:31;7.63;;;6.93;;
4365;SDS011;2196;47.422;9.656;2023-06-22T03:59:58;12.43;;;7.40;;
4365;SDS011;2196;47.422;9.656;2023-06-22T04:02:27;7.30;;;6.37;;
4365;SDS011;2196;47.422;9.656;2023-06-22T04:04:54;9.23;;;6.17;;
4365;SDS011;2196;47.422;9.656;2023-06-22T04:07:22;9.63;;;5.67;;
4365;SDS011;2196;47.422;9.656;2023-06-22T04:09:50;13.17;;;7.20;;
4365;SDS011;2196;47.422;9.656;2023-06-22T04:12:17;10.60;;;6.57;;
4365;SDS011;2196;47.422;9.656;2023-06-22T04:14:44;11.87;;;6.60;;
4365;SDS011;2196;47.422;9.656;2023-06-22T04:17:11;10.03;;;6.20;;
4365;SDS011;2196;47.422;9.656;2023-06-22T04:19:40;14.93;;;8.53;;
4365;SDS011;2196;47.422;9.656;2023-06-22T04:22:07;16.60;;;8.40;;
4365;SDS011;2196;47.422;9.656;2023-06-22T04:24:35;11.77;;;7.17;;
4365;SDS011;2196;47.422;9.656;2023-06-22T04:27:02;10.67;;;7.17;;
4365;SDS011;2196;47.422;9.656;2023-06-22T04:29:30;7.50;;;6.73;;
4365;SDS011;2196;47.422;9.656;2023-06-22T04:31:57;12.63;;;7.00;;
4365;SDS011;2196;47.422;9.656;2023-06-22T04:34:28;11.73;;;6.03;;
4365;SDS011;2196;47.422;9.656;2023-06-22T04:36:57;8.43;;;6.57;;
4365;SDS011;2196;47.422;9.656;2023-06-22T04:39:24;13.73;;;6.33;;
4365;SDS011;2196;47.422;9.656;2023-06-22T04:41:52;11.77;;;6.80;;
4365;SDS011;2196;47.422;9.656;2023-06-22T04:44:25;10.87;;;6.33;;
4365;SDS011;2196;47.422;9.656;2023-06-22T04:46:53;12.23;;;8.10;;
4365;SDS011;2196;47.422;9.656;2023-06-22T04:49:25;11.60;;;6.97;;
4365;SDS011;2196;47.422;9.656;2023-06-22T04:51:59;11.97;;;5.83;;
4365;SDS011;2196;47.422;9.656;2023-06-22T04:54:26;9.63;;;6.20;;
4365;SDS011;2196;47.422;9.656;2023-06-22T04:56:53;10.47;;;7.20;;
4365;SDS011;2196;47.422;9.656;2023-06-22T04:59:22;9.10;;;6.40;;
4365;SDS011;2196;47.422;9.656;2023-06-22T05:01:53;11.37;;;6.33;;
4365;SDS011;2196;47.422;9.656;2023-06-22T05:04:21;7.27;;;5.60;;
4365;SDS011;2196;47.422;9.656;2023-06-22T05:06:49;8.50;;;6.20;;
4365;SDS011;2196;47.422;9.656;2023-06-22T05:09:18;12.53;;;7.47;;
4365;SDS011;2196;47.422;9.656;2023-06-22T05:11:45;13.07;;;8.27;;
4365;SDS011;2196;47.422;9.656;2023-06-22T05:14:12;7.57;;;6.87;;
4365;SDS011;2196;47.422;9.656;2023-06-22T05:16:39;14.53;;;6.83;;
4365;SDS011;2196;47.422;9.656;2023-06-22T05:19:07;10.67;;;6.97;;
4365;SDS011;2196;47.422;9.656;2023-06-22T05:21:34;10.07;;;6.93;;
4365;SDS011;2196;47.422;9.656;2023-06-22T05:24:01;10.70;;;8.40;;
4365;SDS011;2196;47.422;9.656;2023-06-22T05:26:30;11.03;;;7.33;;
4365;SDS011;2196;47.422;9.656;2023-06-22T05:28:58;10.20;;;8.20;;
4365;SDS011;2196;47.422;9.656;2023-06-22T05:31:25;10.83;;;8.13;;
4365;SDS011;2196;47.422;9.656;2023-06-22T05:33:53;9.70;;;7.50;;
4365;SDS011;2196;47.422;9.656;2023-06-22T05:36:20;14.17;;;8.13;;
4365;SDS011;2196;47.422;9.656;2023-06-22T05:38:50;13.40;;;6.80;;
4365;SDS011;2196;47.422;9.656;2023-06-22T05:41:17;11.53;;;8.33;;
4365;SDS011;2196;47.422;9.656;2023-06-22T05:43:46;13.40;;;8.17;;
4365;SDS011;2196;47.422;9.656;2023-06-22T05:46:13;14.80;;;7.30;;
4365;SDS011;2196;47.422;9.656;2023-06-22T05:48:40;11.13;;;6.93;;
4365;SDS011;2196;47.422;9.656;2023-06-22T05:51:07;11.97;;;7.17;;
4365;SDS011;2196;47.422;9.656;2023-06-22T05:53:34;16.90;;;7.68;;
4365;SDS011;2196;47.422;9.656;2023-06-22T05:56:01;12.20;;;7.70;;
4365;SDS011;2196;47.422;9.656;2023-06-22T05:58:29;12.38;;;8.00;;
4365;SDS011;2196;47.422;9.656;2023-06-22T06:00:57;15.68;;;6.95;;
4365;SDS011;2196;47.422;9.656;2023-06-22T06:03:25;14.23;;;8.38;;
4365;SDS011;2196;47.422;9.656;2023-06-22T06:05:53;25.02;;;8.95;;
4365;SDS011;2196;47.422;9.656;2023-06-22T06:08:20;6.20;;;5.55;;
4365;SDS011;2196;47.422;9.656;2023-06-22T06:10:48;15.13;;;7.50;;
4365;SDS011;2196;47.422;9.656;2023-06-22T06:13:15;7.78;;;5.57;;
4365;SDS011;2196;47.422;9.656;2023-06-22T06:15:42;6.85;;;5.65;;
4365;SDS011;2196;47.422;9.656;2023-06-22T06:18:10;6.50;;;5.43;;
4365;SDS011;2196;47.422;9.656;2023-06-22T06:20:37;10.55;;;6.93;;
4365;SDS011;2196;47.422;9.656;2023-06-22T06:23:04;8.30;;;6.53;;
4365;SDS011;2196;47.422;9.656;2023-06-22T06:25:31;9.30;;;6.00;;
4365;SDS011;2196;47.422;9.656;2023-06-22T06:27:58;7.47;;;6.75;;
4365;SDS011;2196;47.422;9.656;2023-06-22T06:30:25;13.63;;;7.72;;
4365;SDS011;2196;47.422;9.656;2023-06-22T06:32:52;13.20;;;6.78;;
4365;SDS011;2196;47.422;9.656;2023-06-22T06:35:20;10.13;;;6.35;;
4365;SDS011;2196;47.422;9.656;2023-06-22T06:37:48;11.88;;;6.10;;
4365;SDS011;2196;47.422;9.656;2023-06-22T06:40:16;7.88;;;6.90;;
4365;SDS011;2196;47.422;9.656;2023-06-22T06:42:45;11.68;;;7.22;;
4365;SDS011;2196;47.422;9.656;2023-06-22T06:45:15;8.93;;;7.50;;
4365;SDS011;2196;47.422;9.656;2023-06-22T06:47:43;10.45;;;6.78;;
4365;SDS011;2196;47.422;9.656;2023-06-22T06:50:11;10.73;;;7.40;;
4365;SDS011;2196;47.422;9.656;2023-06-22T06:52:39;10.95;;;7.32;;
4365;SDS011;2196;47.422;9.656;2023-06-22T06:55:07;20.80;;;8.27;;
4365;SDS011;2196;47.422;9.656;2023-06-22T06:57:37;9.23;;;6.22;;
4365;SDS011;2196;47.422;9.656;2023-06-22T07:00:04;8.57;;;6.93;;
4365;SDS011;2196;47.422;9.656;2023-06-22T07:02:37;11.90;;;6.88;;
4365;SDS011;2196;47.422;9.656;2023-06-22T07:05:04;8.27;;;5.60;;
4365;SDS011;2196;47.422;9.656;2023-06-22T07:07:32;7.03;;;6.10;;
4365;SDS011;2196;47.422;9.656;2023-06-22T07:10:00;12.48;;;6.35;;
4365;SDS011;2196;47.422;9.656;2023-06-22T07:12:28;8.07;;;7.03;;
4365;SDS011;2196;47.422;9.656;2023-06-22T07:14:57;14.20;;;8.45;;
4365;SDS011;2196;47.422;9.656;2023-06-22T07:17:28;9.52;;;6.22;;
4365;SDS011;2196;47.422;9.656;2023-06-22T07:19:55;11.27;;;6.90;;
4365;SDS011;2196;47.422;9.656;2023-06-22T07:22:22;9.93;;;8.00;;
4365;SDS011;2196;47.422;9.656;2023-06-22T07:24:51;8.20;;;7.13;;
4365;SDS011;2196;47.422;9.656;2023-06-22T07:27:23;9.00;;;7.93;;
4365;SDS011;2196;47.422;9.656;2023-06-22T07:29:50;12.35;;;7.05;;
4365;SDS011;2196;47.422;9.656;2023-06-22T07:32:17;8.52;;;6.88;;
4365;SDS011;2196;47.422;9.656;2023-06-22T07:34:44;14.80;;;9.55;;
4365;SDS011;2196;47.422;9.656;2023-06-22T07:37:11;11.65;;;8.15;;
4365;SDS011;2196;47.422;9.656;2023-06-22T07:39:38;10.07;;;8.02;;
4365;SDS011;2196;47.422;9.656;2023-06-22T07:42:05;10.75;;;7.28;;
4365;SDS011;2196;47.422;9.656;2023-06-22T07:44:34;8.55;;;7.75;;
4365;SDS011;2196;47.422;9.656;2023-06-22T07:47:00;9.75;;;7.53;;
4365;SDS011;2196;47.422;9.656;2023-06-22T07:49:27;14.02;;;7.63;;
4365;SDS011;2196;47.422;9.656;2023-06-22T07:51:55;10.82;;;7.97;;
4365;SDS011;2196;47.422;9.656;2023-06-22T07:54:22;8.10;;;6.65;;
4365;SDS011;2196;47.422;9.656;2023-06-22T07:56:48;15.32;;;8.98;;
4365;SDS011;2196;47.422;9.656;2023-06-22T07:59:16;14.63;;;8.80;;
4365;SDS011;2196;47.422;9.656;2023-06-22T08:01:44;10.45;;;8.00;;
4365;SDS011;2196;47.422;9.656;2023-06-22T08:04:14;18.50;;;9.32;;
4365;SDS011;2196;47.422;9.656;2023-06-22T08:06:41;9.98;;;7.78;;
4365;SDS011;2196;47.422;9.656;2023-06-22T08:09:08;11.00;;;9.95;;
4365;SDS011;2196;47.422;9.656;2023-06-22T08:11:35;13.90;;;9.48;;
4365;SDS011;2196;47.422;9.656;2023-06-22T08:14:02;16.70;;;9.25;;
4365;SDS011;2196;47.422;9.656;2023-06-22T08:16:29;16.15;;;9.65;;
4365;SDS011;2196;47.422;9.656;2023-06-22T08:18:58;13.82;;;9.27;;
4365;SDS011;2196;47.422;9.656;2023-06-22T08:21:24;12.55;;;8.65;;
4365;SDS011;2196;47.422;9.656;2023-06-22T08:23:51;10.55;;;8.90;;
4365;SDS011;2196;47.422;9.656;2023-06-22T08:26:18;13.35;;;9.00;;
4365;SDS011;2196;47.422;9.656;2023-06-22T08:28:46;12.95;;;9.45;;
4365;SDS011;2196;47.422;9.656;2023-06-22T08:31:13;10.68;;;8.27;;
4365;SDS011;2196;47.422;9.656;2023-06-22T08:33:40;16.95;;;10.00;;
4365;SDS011;2196;47.422;9.656;2023-06-22T08:36:12;13.02;;;10.05;;
4365;SDS011;2196;47.422;9.656;2023-06-22T08:38:39;13.05;;;8.82;;
4365;SDS011;2196;47.422;9.656;2023-06-22T08:41:06;16.05;;;9.98;;
4365;SDS011;2196;47.422;9.656;2023-06-22T08:43:33;15.80;;;9.73;;
4365;SDS011;2196;47.422;9.656;2023-06-22T08:46:00;17.48;;;10.32;;
4365;SDS011;2196;47.422;9.656;2023-06-22T08:48:27;18.40;;;10.03;;
4365;SDS011;2196;47.422;9.656;2023-06-22T08:50:54;15.00;;;9.23;;
4365;SDS011;2196;47.422;9.656;2023-06-22T08:53:23;10.60;;;8.87;;
4365;SDS011;2196;47.422;9.656;2023-06-22T08:55:49;15.90;;;9.30;;
4365;SDS011;2196;47.422;9.656;2023-06-22T08:58:17;13.80;;;10.07;;
4365;SDS011;2196;47.422;9.656;2023-06-22T09:00:45;22.83;;;11.10;;
4365;SDS011;2196;47.422;9.656;2023-06-22T09:03:12;17.00;;;9.93;;
4365;SDS011;2196;47.422;9.656;2023-06-22T09:05:40;17.40;;;10.40;;
4365;SDS011;2196;47.422;9.656;2023-06-22T09:08:07;12.33;;;9.23;;
4365;SDS011;2196;47.422;9.656;2023-06-22T09:10:35;13.93;;;9.95;;
4365;SDS011;2196;47.422;9.656;2023-06-22T09:13:02;12.83;;;9.80;;
4365;SDS011;2196;47.422;9.656;2023-06-22T09:15:29;14.55;;;7.82;;
4365;SDS011;2196;47.422;9.656;2023-06-22T09:17:56;11.95;;;9.52;;
4365;SDS011;2196;47.422;9.656;2023-06-22T09:20:23;17.70;;;9.40;;
4365;SDS011;2196;47.422;9.656;2023-06-22T09:22:50;10.88;;;8.48;;
4365;SDS011;2196;47.422;9.656;2023-06-22T09:25:17;10.23;;;7.75;;
4365;SDS011;2196;47.422;9.656;2023-06-22T09:27:47;10.45;;;8.55;;
4365;SDS011;2196;47.422;9.656;2023-06-22T09:30:14;15.07;;;8.70;;
4365;SDS011;2196;47.422;9.656;2023-06-22T09:32:41;13.82;;;9.02;;
4365;SDS011;2196;47.422;9.656;2023-06-22T09:35:09;15.30;;;8.88;;
4365;SDS011;2196;47.422;9.656;2023-06-22T09:37:38;13.63;;;7.40;;
4365;SDS011;2196;47.422;9.656;2023-06-22T09:40:05;12.68;;;9.48;;
4365;SDS011;2196;47.422;9.656;2023-06-22T09:42:35;15.30;;;8.73;;
4365;SDS011;2196;47.422;9.656;2023-06-22T09:45:04;16.05;;;10.63;;
4365;SDS011;2196;47.422;9.656;2023-06-22T09:47:32;12.43;;;9.35;;
4365;SDS011;2196;47.422;9.656;2023-06-22T09:49:59;13.02;;;7.60;;
4365;SDS011;2196;47.422;9.656;2023-06-22T09:52:27;10.80;;;8.07;;
4365;SDS011;2196;47.422;9.656;2023-06-22T09:54:54;17.60;;;10.52;;
4365;SDS011;2196;47.422;9.656;2023-06-22T09:57:21;11.13;;;9.23;;
4365;SDS011;2196;47.422;9.656;2023-06-22T09:59:48;15.32;;;9.77;;
4365;SDS011;2196;47.422;9.656;2023-06-22T10:02:16;11.48;;;8.30;;
4365;SDS011;2196;47.422;9.656;2023-06-22T10:04:43;13.35;;;9.43;;
4365;SDS011;2196;47.422;9.656;2023-06-22T10:07:10;16.25;;;9.68;;
4365;SDS011;2196;47.422;9.656;2023-06-22T10:09:37;17.58;;;10.15;;
4365;SDS011;2196;47.422;9.656;2023-06-22T10:12:05;16.88;;;9.63;;
4365;SDS011;2196;47.422;9.656;2023-06-22T10:14:32;12.55;;;9.18;;
4365;SDS011;2196;47.422;9.656;2023-06-22T10:17:00;18.20;;;11.27;;
4365;SDS011;2196;47.422;9.656;2023-06-22T10:19:28;14.93;;;10.40;;
4365;SDS011;2196;47.422;9.656;2023-06-22T10:21:55;13.93;;;10.98;;
4365;SDS011;2196;47.422;9.656;2023-06-22T10:24:22;13.60;;;12.23;;
4365;SDS011;2196;47.422;9.656;2023-06-22T10:26:49;14.60;;;8.77;;
4365;SDS011;2196;47.422;9.656;2023-06-22T10:29:16;13.80;;;9.65;;
4365;SDS011;2196;47.422;9.656;2023-06-22T10:31:43;13.90;;;10.75;;
4365;SDS011;2196;47.422;9.656;2023-06-22T10:34:10;17.42;;;13.20;;
4365;SDS011;2196;47.422;9.656;2023-06-22T10:36:39;12.13;;;9.30;;
4365;SDS011;2196;47.422;9.656;2023-06-22T10:39:06;12.98;;;10.02;;
4365;SDS011;2196;47.422;9.656;2023-06-22T10:41:34;15.20;;;10.13;;
4365;SDS011;2196;47.422;9.656;2023-06-22T10:44:01;16.40;;;10.90;;
4365;SDS011;2196;47.422;9.656;2023-06-22T10:46:28;16.40;;;10.85;;
4365;SDS011;2196;47.422;9.656;2023-06-22T10:48:55;11.70;;;9.57;;
4365;SDS011;2196;47.422;9.656;2023-06-22T10:51:23;14.68;;;11.05;;
4365;SDS011;2196;47.422;9.656;2023-06-22T10:53:52;15.27;;;10.73;;
4365;SDS011;2196;47.422;9.656;2023-06-22T10:56:19;17.63;;;11.88;;
4365;SDS011;2196;47.422;9.656;2023-06-22T10:58:46;15.57;;;10.98;;
4365;SDS011;2196;47.422;9.656;2023-06-22T11:01:13;12.13;;;10.82;;
4365;SDS011;2196;47.422;9.656;2023-06-22T11:03:41;12.80;;;10.48;;
4365;SDS011;2196;47.422;9.656;2023-06-22T11:06:08;16.98;;;11.98;;
4365;SDS011;2196;47.422;9.656;2023-06-22T11:08:35;15.77;;;10.48;;
4365;SDS011;2196;47.422;9.656;2023-06-22T11:11:03;15.20;;;10.80;;
4365;SDS011;2196;47.422;9.656;2023-06-22T11:13:30;15.45;;;10.80;;
4365;SDS011;2196;47.422;9.656;2023-06-22T11:15:57;17.70;;;11.77;;
4365;SDS011;2196;47.422;9.656;2023-06-22T11:18:24;14.68;;;9.75;;
4365;SDS011;2196;47.422;9.656;2023-06-22T11:20:51;10.52;;;8.35;;
4365;SDS011;2196;47.422;9.656;2023-06-22T11:23:18;10.55;;;8.90;;
4365;SDS011;2196;47.422;9.656;2023-06-22T11:25:45;11.05;;;10.07;;
4365;SDS011;2196;47.422;9.656;2023-06-22T11:28:14;14.90;;;9.27;;
4365;SDS011;2196;47.422;9.656;2023-06-22T11:30:41;14.90;;;10.20;;
4365;SDS011;2196;47.422;9.656;2023-06-22T11:33:08;10.35;;;8.65;;
4365;SDS011;2196;47.422;9.656;2023-06-22T11:35:34;11.13;;;9.65;;
4365;SDS011;2196;47.422;9.656;2023-06-22T11:38:02;11.27;;;10.25;;
4365;SDS011;2196;47.422;9.656;2023-06-22T11:40:30;12.27;;;10.18;;
4365;SDS011;2196;47.422;9.656;2023-06-22T11:42:57;16.42;;;11.13;;
4365;SDS011;2196;47.422;9.656;2023-06-22T11:45:25;14.25;;;10.35;;
4365;SDS011;2196;47.422;9.656;2023-06-22T11:47:52;21.38;;;11.52;;
4365;SDS011;2196;47.422;9.656;2023-06-22T11:50:20;20.63;;;11.02;;
4365;SDS011;2196;47.422;9.656;2023-06-22T11:52:47;14.32;;;9.88;;
4365;SDS011;2196;47.422;9.656;2023-06-22T11:55:14;14.05;;;9.45;;
4365;SDS011;2196;47.422;9.656;2023-06-22T11:57:51;11.30;;;9.45;;
4365;SDS011;2196;47.422;9.656;2023-06-22T12:00:19;10.98;;;8.85;;
4365;SDS011;2196;47.422;9.656;2023-06-22T12:02:50;18.63;;;11.43;;
4365;SDS011;2196;47.422;9.656;2023-06-22T12:05:18;12.50;;;10.35;;
4365;SDS011;2196;47.422;9.656;2023-06-22T12:07:45;14.70;;;8.63;;
4365;SDS011;2196;47.422;9.656;2023-06-22T12:10:12;10.00;;;8.88;;
4365;SDS011;2196;47.422;9.656;2023-06-22T12:12:39;11.15;;;8.32;;
4365;SDS011;2196;47.422;9.656;2023-06-22T12:15:08;13.48;;;9.45;;
4365;SDS011;2196;47.422;9.656;2023-06-22T12:17:36;13.52;;;10.55;;
4365;SDS011;2196;47.422;9.656;2023-06-22T12:20:05;12.13;;;8.93;;
4365;SDS011;2196;47.422;9.656;2023-06-22T12:22:33;20.38;;;9.77;;
4365;SDS011;2196;47.422;9.656;2023-06-22T12:25:02;11.93;;;8.40;;
4365;SDS011;2196;47.422;9.656;2023-06-22T12:27:30;16.92;;;8.20;;
4365;SDS011;2196;47.422;9.656;2023-06-22T12:29:57;16.95;;;10.60;;
4365;SDS011;2196;47.422;9.656;2023-06-22T12:32:24;13.48;;;10.02;;
4365;SDS011;2196;47.422;9.656;2023-06-22T12:34:51;11.77;;;9.07;;
4365;SDS011;2196;47.422;9.656;2023-06-22T12:37:19;14.82;;;9.18;;
4365;SDS011;2196;47.422;9.656;2023-06-22T12:39:46;10.25;;;8.38;;
4365;SDS011;2196;47.422;9.656;2023-06-22T12:42:14;13.73;;;7.68;;
4365;SDS011;2196;47.422;9.656;2023-06-22T12:44:41;9.57;;;8.63;;
4365;SDS011;2196;47.422;9.656;2023-06-22T12:47:08;16.33;;;8.35;;
4365;SDS011;2196;47.422;9.656;2023-06-22T12:49:36;13.00;;;7.63;;
4365;SDS011;2196;47.422;9.656;2023-06-22T12:52:04;18.00;;;7.50;;
4365;SDS011;2196;47.422;9.656;2023-06-22T12:54:37;12.98;;;8.25;;
4365;SDS011;2196;47.422;9.656;2023-06-22T12:57:04;17.45;;;7.60;;
4365;SDS011;2196;47.422;9.656;2023-06-22T12:59:32;10.27;;;7.68;;
4365;SDS011;2196;47.422;9.656;2023-06-22T13:01:59;18.55;;;8.18;;
4365;SDS011;2196;47.422;9.656;2023-06-22T13:04:26;12.73;;;7.68;;
4365;SDS011;2196;47.422;9.656;2023-06-22T13:06:53;14.90;;;9.05;;
4365;SDS011;2196;47.422;9.656;2023-06-22T13:09:20;11.98;;;7.43;;
4365;SDS011;2196;47.422;9.656;2023-06-22T13:11:48;9.07;;;7.13;;
4365;SDS011;2196;47.422;9.656;2023-06-22T13:14:15;14.15;;;7.35;;
4365;SDS011;2196;47.422;9.656;2023-06-22T13:16:42;17.00;;;7.38;;
4365;SDS011;2196;47.422;9.656;2023-06-22T13:19:09;15.77;;;8.20;;
4365;SDS011;2196;47.422;9.656;2023-06-22T13:21:36;10.95;;;6.90;;
4365;SDS011;2196;47.422;9.656;2023-06-22T13:24:03;12.90;;;8.13;;
4365;SDS011;2196;47.422;9.656;2023-06-22T13:26:31;10.80;;;7.53;;
4365;SDS011;2196;47.422;9.656;2023-06-22T13:29:00;11.90;;;7.30;;
4365;SDS011;2196;47.422;9.656;2023-06-22T13:31:26;12.35;;;8.48;;
4365;SDS011;2196;47.422;9.656;2023-06-22T13:33:53;15.60;;;7.47;;
4365;SDS011;2196;47.422;9.656;2023-06-22T13:36:20;11.68;;;7.40;;
4365;SDS011;2196;47.422;9.656;2023-06-22T13:38:48;10.13;;;8.30;;
4365;SDS011;2196;47.422;9.656;2023-06-22T13:41:15;8.07;;;6.90;;
4365;SDS011;2196;47.422;9.656;2023-06-22T13:43:42;9.95;;;7.95;;
4365;SDS011;2196;47.422;9.656;2023-06-22T13:46:10;14.77;;;7.97;;
4365;SDS011;2196;47.422;9.656;2023-06-22T13:48:37;10.18;;;7.60;;
4365;SDS011;2196;47.422;9.656;2023-06-22T13:51:04;16.08;;;7.63;;
4365;SDS011;2196;47.422;9.656;2023-06-22T13:53:31;10.82;;;7.80;;
4365;SDS011;2196;47.422;9.656;2023-06-22T13:55:58;10.88;;;8.05;;
4365;SDS011;2196;47.422;9.656;2023-06-22T13:58:25;9.80;;;6.90;;
4365;SDS011;2196;47.422;9.656;2023-06-22T14:00:52;8.90;;;6.20;;
4365;SDS011;2196;47.422;9.656;2023-06-22T14:03:20;11.88;;;7.97;;
4365;SDS011;2196;47.422;9.656;2023-06-22T14:05:47;9.77;;;6.85;;
4365;SDS011;2196;47.422;9.656;2023-06-22T14:08:14;11.50;;;8.32;;
4365;SDS011;2196;47.422;9.656;2023-06-22T14:10:41;15.50;;;8.05;;
4365;SDS011;2196;47.422;9.656;2023-06-22T14:13:08;10.48;;;7.32;;
4365;SDS011;2196;47.422;9.656;2023-06-22T14:15:35;12.27;;;7.97;;
4365;SDS011;2196;47.422;9.656;2023-06-22T14:18:02;8.10;;;7.07;;
4365;SDS011;2196;47.422;9.656;2023-06-22T14:20:30;14.90;;;7.38;;
4365;SDS011;2196;47.422;9.656;2023-06-22T14:22:57;9.85;;;8.73;;
4365;SDS011;2196;47.422;9.656;2023-06-22T14:25:24;11.15;;;7.63;;
4365;SDS011;2196;47.422;9.656;2023-06-22T14:27:51;14.18;;;8.15;;
4365;SDS011;2196;47.422;9.656;2023-06-22T14:30:18;13.18;;;7.30;;
4365;SDS011;2196;47.422;9.656;2023-06-22T14:32:45;11.60;;;7.15;;
4365;SDS011;2196;47.422;9.656;2023-06-22T14:35:12;10.68;;;8.80;;
4365;SDS011;2196;47.422;9.656;2023-06-22T14:37:40;15.63;;;6.95;;
4365;SDS011;2196;47.422;9.656;2023-06-22T14:40:07;12.57;;;9.18;;
4365;SDS011;2196;47.422;9.656;2023-06-22T14:42:34;9.15;;;7.03;;
4365;SDS011;2196;47.422;9.656;2023-06-22T14:45:01;8.73;;;7.78;;
4365;SDS011;2196;47.422;9.656;2023-06-22T14:47:28;17.60;;;8.15;;
4365;SDS011;2196;47.422;9.656;2023-06-22T14:49:55;14.23;;;8.15;;
4365;SDS011;2196;47.422;9.656;2023-06-22T14:52:23;13.80;;;8.18;;
4365;SDS011;2196;47.422;9.656;2023-06-22T14:54:52;11.38;;;9.40;;
4365;SDS011;2196;47.422;9.656;2023-06-22T14:57:19;13.45;;;8.57;;
4365;SDS011;2196;47.422;9.656;2023-06-22T14:59:48;15.60;;;8.82;;
4365;SDS011;2196;47.422;9.656;2023-06-22T15:02:15;12.95;;;8.50;;
4365;SDS011;2196;47.422;9.656;2023-06-22T15:04:42;13.55;;;8.65;;
4365;SDS011;2196;47.422;9.656;2023-06-22T15:07:09;11.82;;;7.93;;
4365;SDS011;2196;47.422;9.656;2023-06-22T15:09:36;11.23;;;9.13;;